VOCB/CJB METAR and TAF weather

Enter ICAO airport designator
Station Type Date Time Source
VOCB METAR 2020/09/18 08:00 UTC NOAA

VOCB 180800Z 20010G20KT 7000 SCT012 FEW020TCU SCT080 31/22 Q1007 NOSIG


Station Type Date Time Source
VOCB Decoded METAR 2020/09/18 08:00 UTC NOAA

Coimbatore / Peelamedu, India (VOCB) 11-02N 077-03E 399M
Sep 18, 2020 - 04:00 AM EDT / 2020.09.18 0800 UTC
Wind: from the SSW (200 degrees) at 12 MPH (10 KT) gusting to 23 MPH (20 KT):0
Visibility: 4 mile(s):0
Sky conditions: partly cloudy
Weather: Towering cumulus clouds observed
Temperature: 87 F (31 C)
Heat index: 92.3 F (33.5 C):1
Dew Point: 71 F (22 C)
Relative Humidity: 58%
Pressure (altimeter): 29.74 in. Hg (1007 hPa)
ob: VOCB 180800Z 20010G20KT 7000 SCT012 FEW020TCU SCT080 31/22 Q1007 NOSIG
cycle: 8

Station Type Date Time Source
VOCB TAF 2020/09/18 06:00 UTC NOAA

TAF VOCB 180500Z 1806/1912 20010KT 6000 SCT015 BKN080
TEMPO 1806/1812 20010G20KT
TEMPO 1809/1815 SCT015 FEW020TCU/CB BKN080
BECMG 1815/1816 5000 BR
BECMG 1903/1904 6000
TEMPO 1906/1912 SCT015 FEW020TCU/CB BKN080

Example: see airport list